createdAt,value
2023-05-22T00:00:44.757Z,16.77
2023-05-22T00:01:44.742Z,16.77
2023-05-22T00:02:44.858Z,16.76
2023-05-22T00:03:44.709Z,16.73
2023-05-22T00:04:44.784Z,16.73
2023-05-22T00:05:44.690Z,16.73
2023-05-22T00:06:44.673Z,16.73
2023-05-22T00:07:44.670Z,16.69
2023-05-22T00:08:44.649Z,16.69
2023-05-22T00:09:44.645Z,16.73
2023-05-22T00:10:44.632Z,16.69
2023-05-22T00:11:44.620Z,16.68
2023-05-22T00:12:44.627Z,16.66
2023-05-22T00:13:44.579Z,16.64
2023-05-22T00:14:44.595Z,16.65
2023-05-22T00:15:44.555Z,16.65
2023-05-22T00:16:44.589Z,16.66
2023-05-22T00:17:44.650Z,16.68
2023-05-22T00:18:44.557Z,16.66
2023-05-22T00:19:44.512Z,16.66
2023-05-22T00:20:44.494Z,16.65
2023-05-22T00:21:44.515Z,16.65
2023-05-22T00:22:44.483Z,16.59
2023-05-22T00:23:44.453Z,16.58
2023-05-22T00:24:44.441Z,16.51
2023-05-22T00:25:44.419Z,16.51
2023-05-22T00:26:44.435Z,16.51
2023-05-22T00:27:44.389Z,16.51
2023-05-22T00:28:44.383Z,16.49
2023-05-22T00:29:44.369Z,16.50
2023-05-22T00:30:44.368Z,16.47
2023-05-22T00:31:44.372Z,16.47
2023-05-22T00:32:44.363Z,16.44
2023-05-22T00:33:44.328Z,16.46
2023-05-22T00:34:44.398Z,16.46
2023-05-22T00:35:44.297Z,16.46
2023-05-22T00:36:44.297Z,16.44
2023-05-22T00:37:44.263Z,16.44
2023-05-22T00:38:44.267Z,16.41
2023-05-22T00:39:44.245Z,16.40
2023-05-22T00:40:44.236Z,16.39
2023-05-22T00:41:44.254Z,16.39
2023-05-22T00:42:44.209Z,16.36
2023-05-22T00:43:44.204Z,16.36
2023-05-22T00:44:44.175Z,16.34
2023-05-22T00:45:44.155Z,16.34
2023-05-22T00:46:44.228Z,16.34
2023-05-22T00:47:44.197Z,16.32
2023-05-22T00:48:44.132Z,16.32
2023-05-22T00:49:44.105Z,16.32
2023-05-22T00:50:44.111Z,16.32
2023-05-22T00:51:44.097Z,16.29
2023-05-22T00:52:44.077Z,16.25
2023-05-22T00:53:44.054Z,16.25
2023-05-22T00:54:44.052Z,16.22
2023-05-22T00:55:44.056Z,16.24
2023-05-22T00:56:44.073Z,16.24
2023-05-22T00:57:44.009Z,16.24
2023-05-22T00:58:43.996Z,16.25
2023-05-22T00:59:43.976Z,16.25
2023-05-22T01:00:43.998Z,16.25
2023-05-22T01:01:44.085Z,16.22
2023-05-22T01:02:44.074Z,16.21
2023-05-22T01:03:43.998Z,16.18
2023-05-22T01:04:43.909Z,16.17
2023-05-22T01:05:43.907Z,16.18
2023-05-22T01:06:43.884Z,16.17
2023-05-22T01:07:43.885Z,16.16
2023-05-22T01:08:43.875Z,16.16
2023-05-22T01:09:43.853Z,16.13
2023-05-22T01:10:43.858Z,16.13
2023-05-22T01:11:43.817Z,16.09
2023-05-22T01:12:43.809Z,16.09
2023-05-22T01:13:43.788Z,16.05
2023-05-22T01:14:43.775Z,16.00
2023-05-22T01:15:43.795Z,16.00
2023-05-22T01:16:43.868Z,16.00
2023-05-22T01:17:43.813Z,16.02
2023-05-22T01:18:43.778Z,16.00
2023-05-22T01:19:43.746Z,16.00
2023-05-22T01:20:43.721Z,15.98
2023-05-22T01:21:43.712Z,15.96
2023-05-22T01:22:43.683Z,15.96
2023-05-22T01:23:43.673Z,15.98
2023-05-22T01:24:43.667Z,16.02
2023-05-22T01:25:43.628Z,16.00
2023-05-22T01:26:43.640Z,16.00
2023-05-22T01:27:43.610Z,16.00
2023-05-22T01:28:43.604Z,16.00
2023-05-22T01:29:43.600Z,15.99
2023-05-22T01:30:43.566Z,16.00
2023-05-22T01:31:43.550Z,16.00
2023-05-22T01:32:43.607Z,15.99
2023-05-22T01:33:43.596Z,16.00
2023-05-22T01:34:43.542Z,15.99
2023-05-22T01:35:43.493Z,15.96
2023-05-22T01:36:43.487Z,15.90
2023-05-22T01:37:43.472Z,15.87
2023-05-22T01:38:43.474Z,15.84
2023-05-22T01:39:43.462Z,15.83
2023-05-22T01:40:43.427Z,15.81
2023-05-22T01:41:43.412Z,15.83
2023-05-22T01:42:43.399Z,15.83
2023-05-22T01:43:43.432Z,15.81
2023-05-22T01:44:43.393Z,15.83
2023-05-22T01:45:43.404Z,15.84
2023-05-22T01:46:43.363Z,15.84
2023-05-22T01:47:43.374Z,15.83
2023-05-22T01:48:43.356Z,15.85
2023-05-22T01:49:43.352Z,15.85
2023-05-22T01:50:43.304Z,15.87
2023-05-22T01:51:43.305Z,15.85
2023-05-22T01:52:43.276Z,15.85
2023-05-22T01:53:43.303Z,15.84
2023-05-22T01:54:43.249Z,15.84
2023-05-22T01:55:43.247Z,15.83
2023-05-22T01:56:43.215Z,15.78
2023-05-22T01:57:43.227Z,15.76
2023-05-22T01:58:43.230Z,15.73
2023-05-22T01:59:43.184Z,15.72
2023-05-22T02:00:43.166Z,15.70
2023-05-22T02:01:43.256Z,15.69
2023-05-22T02:02:43.271Z,15.69
2023-05-22T02:03:43.201Z,15.70
2023-05-22T02:04:43.095Z,15.72
2023-05-22T02:05:43.128Z,15.67
2023-05-22T02:06:43.083Z,15.67
2023-05-22T02:07:43.100Z,15.65
2023-05-22T02:08:43.034Z,15.65
2023-05-22T02:09:43.042Z,15.62
2023-05-22T02:10:43.037Z,15.62
2023-05-22T02:11:43.017Z,15.60
2023-05-22T02:12:43.008Z,15.59
2023-05-22T02:13:42.995Z,15.59
2023-05-22T02:14:43.042Z,15.59
2023-05-22T02:15:43.053Z,15.59
2023-05-22T02:16:42.948Z,15.57
2023-05-22T02:17:43.065Z,15.54
2023-05-22T02:18:42.952Z,15.54
2023-05-22T02:19:42.922Z,15.54
2023-05-22T02:20:42.892Z,15.51
2023-05-22T02:21:42.882Z,15.51
2023-05-22T02:22:42.878Z,15.48
2023-05-22T02:23:42.866Z,15.48
2023-05-22T02:24:42.860Z,15.47
2023-05-22T02:25:42.846Z,15.48
2023-05-22T02:26:42.835Z,15.47
2023-05-22T02:27:42.846Z,15.48
2023-05-22T02:28:42.781Z,15.47
2023-05-22T02:29:42.771Z,15.45
2023-05-22T02:30:42.761Z,15.45
2023-05-22T02:31:42.812Z,15.44
2023-05-22T02:32:42.811Z,15.41
2023-05-22T02:33:42.725Z,15.41
2023-05-22T02:34:42.706Z,15.41
2023-05-22T02:35:42.709Z,15.41
2023-05-22T02:36:42.703Z,15.37
2023-05-22T02:37:42.677Z,15.32
2023-05-22T02:38:42.657Z,15.29
2023-05-22T02:39:42.649Z,15.27
2023-05-22T02:40:42.705Z,15.26
2023-05-22T02:41:42.637Z,15.23
2023-05-22T02:42:42.620Z,15.19
2023-05-22T02:43:42.612Z,15.18
2023-05-22T02:44:42.583Z,15.14
2023-05-22T02:45:42.558Z,15.12
2023-05-22T02:46:42.601Z,15.10
2023-05-22T02:47:42.560Z,15.10
2023-05-22T02:48:42.518Z,15.10
2023-05-22T02:49:42.524Z,15.08
2023-05-22T02:50:42.490Z,15.11
2023-05-22T02:51:42.498Z,15.12
2023-05-22T02:52:42.474Z,15.12
2023-05-22T02:53:42.470Z,15.15
2023-05-22T02:54:42.436Z,15.17
2023-05-22T02:55:42.445Z,15.17
2023-05-22T02:56:42.429Z,15.17
2023-05-22T02:57:42.397Z,15.14
2023-05-22T02:58:42.382Z,15.15
2023-05-22T02:59:42.397Z,15.15
2023-05-22T03:00:42.400Z,15.18
2023-05-22T03:01:42.407Z,15.17
2023-05-22T03:02:42.351Z,15.17
2023-05-22T03:03:42.420Z,15.18
2023-05-22T03:04:42.310Z,15.14
2023-05-22T03:05:42.306Z,15.12
2023-05-22T03:06:42.269Z,15.12
2023-05-22T03:07:42.360Z,15.10
2023-05-22T03:08:42.248Z,15.10
2023-05-22T03:09:42.259Z,15.08
2023-05-22T03:10:42.296Z,15.05
2023-05-22T03:11:42.230Z,14.99
2023-05-22T03:12:42.251Z,14.96
2023-05-22T03:13:42.186Z,14.93
2023-05-22T03:14:42.237Z,14.90
2023-05-22T03:15:42.157Z,14.86
2023-05-22T03:16:42.213Z,14.86
2023-05-22T03:17:42.167Z,14.85
2023-05-22T03:18:42.117Z,14.85
2023-05-22T03:19:42.125Z,14.86
2023-05-22T03:20:42.216Z,14.89
2023-05-22T03:21:42.090Z,14.87
2023-05-22T03:22:42.067Z,14.85
2023-05-22T03:23:42.049Z,14.85
2023-05-22T03:24:42.048Z,14.82
2023-05-22T03:25:42.037Z,14.79
2023-05-22T03:26:42.063Z,14.79
2023-05-22T03:27:42.005Z,14.79
2023-05-22T03:28:42.007Z,14.82
2023-05-22T03:29:41.995Z,14.82
2023-05-22T03:30:42.167Z,14.82
2023-05-22T03:31:41.960Z,14.82
2023-05-22T03:32:41.956Z,14.85
2023-05-22T03:33:41.966Z,14.86
2023-05-22T03:34:41.914Z,14.86
2023-05-22T03:35:41.895Z,14.87
2023-05-22T03:36:41.891Z,14.87
2023-05-22T03:37:41.883Z,14.90
2023-05-22T03:38:41.872Z,14.90
2023-05-22T03:39:41.864Z,14.92
2023-05-22T03:40:42.051Z,14.90
2023-05-22T03:41:41.837Z,14.89
2023-05-22T03:42:41.812Z,14.87
2023-05-22T03:43:44.781Z,14.89
2023-05-22T03:44:41.771Z,14.90
2023-05-22T03:45:41.789Z,14.89
2023-05-22T03:46:41.764Z,14.87
2023-05-22T03:47:41.791Z,14.86
2023-05-22T03:48:41.744Z,14.82
2023-05-22T03:49:41.726Z,14.82
2023-05-22T03:50:41.933Z,14.82
2023-05-22T03:51:41.685Z,14.81
2023-05-22T03:52:41.692Z,14.82
2023-05-22T03:53:41.661Z,14.78
2023-05-22T03:54:41.648Z,14.77
2023-05-22T03:55:41.633Z,14.73
2023-05-22T03:56:41.610Z,14.73
2023-05-22T03:57:41.618Z,14.73
2023-05-22T03:58:41.595Z,14.73
2023-05-22T03:59:41.575Z,14.74
2023-05-22T04:00:41.557Z,14.74
2023-05-22T04:01:41.572Z,14.78
2023-05-22T04:02:41.627Z,14.77
2023-05-22T04:03:41.576Z,14.77
2023-05-22T04:04:41.574Z,14.79
2023-05-22T04:05:41.528Z,14.79
2023-05-22T04:06:41.501Z,14.81
2023-05-22T04:07:41.471Z,14.79
2023-05-22T04:08:41.450Z,14.81
2023-05-22T04:09:41.550Z,14.82
2023-05-22T04:10:41.614Z,14.85
2023-05-22T04:11:41.415Z,14.82
2023-05-22T04:12:41.410Z,14.85
2023-05-22T04:13:41.390Z,14.86
2023-05-22T04:14:41.365Z,14.85
2023-05-22T04:15:41.386Z,14.86
2023-05-22T04:16:41.364Z,14.86
2023-05-22T04:17:41.388Z,14.87
2023-05-22T04:18:41.315Z,14.86
2023-05-22T04:19:41.301Z,14.86
2023-05-22T04:20:41.452Z,14.86
2023-05-22T04:21:41.299Z,14.86
2023-05-22T04:22:41.373Z,14.87
2023-05-22T04:23:41.250Z,14.89
2023-05-22T04:24:41.257Z,14.90
2023-05-22T04:25:41.255Z,14.89
2023-05-22T04:26:42.572Z,14.87
2023-05-22T04:27:41.200Z,14.90
2023-05-22T04:28:41.182Z,14.90
2023-05-22T04:29:41.176Z,14.94
2023-05-22T04:30:41.326Z,14.94
2023-05-22T04:31:41.256Z,14.97
2023-05-22T04:32:41.200Z,15.00
2023-05-22T04:33:41.107Z,15.04
2023-05-22T04:34:41.123Z,15.05
2023-05-22T04:35:41.136Z,15.07
2023-05-22T04:36:41.082Z,15.11
2023-05-22T04:37:41.150Z,15.12
2023-05-22T04:38:41.066Z,15.17
2023-05-22T04:39:41.076Z,15.18
2023-05-22T04:40:41.207Z,15.22
2023-05-22T04:41:41.025Z,15.23
2023-05-22T04:42:41.020Z,15.25
2023-05-22T04:43:40.987Z,15.25
2023-05-22T04:44:40.971Z,15.27
2023-05-22T04:45:40.975Z,15.30
2023-05-22T04:46:40.984Z,15.32
2023-05-22T04:47:40.996Z,15.33
2023-05-22T04:48:40.915Z,15.33
2023-05-22T04:49:40.929Z,15.36
2023-05-22T04:50:41.241Z,15.36
2023-05-22T04:51:40.886Z,15.37
2023-05-22T04:52:40.868Z,15.37
2023-05-22T04:53:40.860Z,15.39
2023-05-22T04:54:40.850Z,15.43
2023-05-22T04:55:40.858Z,15.45
2023-05-22T04:56:40.811Z,15.48
2023-05-22T04:57:40.819Z,15.51
2023-05-22T04:58:40.773Z,15.55
2023-05-22T04:59:40.781Z,15.59
2023-05-22T05:00:41.009Z,15.65
2023-05-22T05:01:40.786Z,15.70
2023-05-22T05:02:40.777Z,15.76
2023-05-22T05:03:40.778Z,15.81
2023-05-22T05:04:40.717Z,15.83
2023-05-22T05:05:40.714Z,15.83
2023-05-22T05:06:40.679Z,15.84
2023-05-22T05:07:40.689Z,15.85
2023-05-22T05:08:40.665Z,15.85
2023-05-22T05:09:40.661Z,15.88
2023-05-22T05:10:40.889Z,15.87
2023-05-22T05:11:40.617Z,15.91
2023-05-22T05:12:40.595Z,15.92
2023-05-22T05:13:40.613Z,15.94
2023-05-22T05:14:40.586Z,15.98
2023-05-22T05:15:40.579Z,16.00
2023-05-22T05:16:40.632Z,16.00
2023-05-22T05:17:40.553Z,16.03
2023-05-22T05:18:40.549Z,16.05
2023-05-22T05:19:40.551Z,16.08
2023-05-22T05:20:40.654Z,16.12
2023-05-22T05:21:40.467Z,16.17
2023-05-22T05:22:40.496Z,16.22
2023-05-22T05:23:40.488Z,16.24
2023-05-22T05:24:40.462Z,16.22
2023-05-22T05:25:40.428Z,16.25
2023-05-22T05:26:40.400Z,16.25
2023-05-22T05:27:40.410Z,16.25
2023-05-22T05:28:40.390Z,16.26
2023-05-22T05:29:40.392Z,16.25
2023-05-22T05:30:40.735Z,16.26
2023-05-22T05:31:40.365Z,16.29
2023-05-22T05:32:40.422Z,16.34
2023-05-22T05:33:40.336Z,16.37
2023-05-22T05:34:40.315Z,16.40
2023-05-22T05:35:42.698Z,16.43
2023-05-22T05:36:40.286Z,16.47
2023-05-22T05:37:40.291Z,16.54
2023-05-22T05:38:40.234Z,16.61
2023-05-22T05:39:40.251Z,16.68
2023-05-22T05:40:40.475Z,16.76
2023-05-22T05:41:40.241Z,16.77
2023-05-22T05:42:40.184Z,16.82
2023-05-22T05:43:40.184Z,16.84
2023-05-22T05:44:40.178Z,16.86
2023-05-22T05:45:40.171Z,16.89
2023-05-22T05:46:40.195Z,16.89
2023-05-22T05:47:40.153Z,16.89
2023-05-22T05:48:40.097Z,16.92
2023-05-22T05:49:40.106Z,16.98
2023-05-22T05:50:40.361Z,17.04
2023-05-22T05:51:40.096Z,17.05
2023-05-22T05:52:40.072Z,17.13
2023-05-22T05:53:40.043Z,17.16
2023-05-22T05:54:40.032Z,17.17
2023-05-22T05:55:40.041Z,17.16
2023-05-22T05:56:40.015Z,17.14
2023-05-22T05:57:40.006Z,17.13
2023-05-22T05:58:39.983Z,17.14
2023-05-22T05:59:39.981Z,17.13
2023-05-22T06:00:40.338Z,17.12
2023-05-22T06:01:39.956Z,17.12
2023-05-22T06:02:40.040Z,17.10
2023-05-22T06:03:40.030Z,17.13
2023-05-22T06:04:39.908Z,17.13
2023-05-22T06:05:39.937Z,17.14
2023-05-22T06:06:39.883Z,17.13
2023-05-22T06:07:39.970Z,17.14
2023-05-22T06:08:39.864Z,17.14
2023-05-22T06:09:39.860Z,17.14
2023-05-22T06:10:40.144Z,17.16
2023-05-22T06:11:39.821Z,17.17
2023-05-22T06:12:39.813Z,17.20
2023-05-22T06:13:39.787Z,17.22
2023-05-22T06:14:39.794Z,17.23
2023-05-22T06:15:39.766Z,17.23
2023-05-22T06:16:39.820Z,17.24
2023-05-22T06:17:39.771Z,17.28
2023-05-22T06:18:39.740Z,17.28
2023-05-22T06:19:39.733Z,17.28
2023-05-22T06:20:39.983Z,17.28
2023-05-22T06:21:39.694Z,17.30
2023-05-22T06:22:39.659Z,17.32
2023-05-22T06:23:39.649Z,17.35
2023-05-22T06:24:39.642Z,17.41
2023-05-22T06:25:39.706Z,17.44
2023-05-22T06:26:39.628Z,17.52
2023-05-22T06:27:39.609Z,17.56
2023-05-22T06:28:39.616Z,17.60
2023-05-22T06:29:39.591Z,17.65
2023-05-22T06:30:40.510Z,17.69
2023-05-22T06:31:39.587Z,17.73
2023-05-22T06:32:39.792Z,17.78
2023-05-22T06:33:39.622Z,17.80
2023-05-22T06:34:39.535Z,17.84
2023-05-22T06:35:39.498Z,17.86
2023-05-22T06:36:39.496Z,17.87
2023-05-22T06:37:39.479Z,17.87
2023-05-22T06:38:39.530Z,17.87
2023-05-22T06:39:39.447Z,17.88
2023-05-22T06:40:39.716Z,17.90
2023-05-22T06:41:39.924Z,17.91
2023-05-22T06:42:39.427Z,17.91
2023-05-22T06:43:39.421Z,17.93
2023-05-22T06:44:39.383Z,17.94
2023-05-22T06:45:39.381Z,17.94
2023-05-22T06:46:39.559Z,17.95
2023-05-22T06:47:39.404Z,17.97
2023-05-22T06:48:39.348Z,18.02
2023-05-22T06:49:39.315Z,18.05
2023-05-22T06:50:39.512Z,18.03
2023-05-22T06:51:39.353Z,18.03
2023-05-22T06:52:39.304Z,18.05
2023-05-22T06:53:39.282Z,18.06
2023-05-22T06:54:39.252Z,18.09
2023-05-22T06:55:39.249Z,18.11
2023-05-22T06:56:39.224Z,18.13
2023-05-22T06:57:39.241Z,18.15
2023-05-22T06:58:39.203Z,18.16
2023-05-22T06:59:39.183Z,18.16
2023-05-22T07:00:39.603Z,18.19
2023-05-22T07:01:39.232Z,18.21
2023-05-22T07:02:39.198Z,18.27
2023-05-22T07:03:39.131Z,18.28
2023-05-22T07:04:39.144Z,18.31
2023-05-22T07:05:39.158Z,18.33
2023-05-22T07:06:39.335Z,18.34
2023-05-22T07:07:39.086Z,18.34
2023-05-22T07:08:39.073Z,18.36
2023-05-22T07:09:39.050Z,18.37
2023-05-22T07:10:39.319Z,18.41
2023-05-22T07:11:39.044Z,18.41
2023-05-22T07:12:39.021Z,18.42
2023-05-22T07:13:39.002Z,18.42
2023-05-22T07:14:39.032Z,18.43
2023-05-22T07:15:38.980Z,18.45
2023-05-22T07:16:39.044Z,18.46
2023-05-22T07:17:39.001Z,18.48
2023-05-22T07:18:38.949Z,18.48
2023-05-22T07:19:38.939Z,18.49
2023-05-22T07:20:39.079Z,18.49
2023-05-22T07:21:38.918Z,18.52
2023-05-22T07:22:38.891Z,18.55
2023-05-22T07:23:38.860Z,18.55
2023-05-22T07:24:38.977Z,18.57
2023-05-22T07:25:38.857Z,18.61
2023-05-22T07:26:38.855Z,18.61
2023-05-22T07:27:38.824Z,18.63
2023-05-22T07:28:38.815Z,18.66
2023-05-22T07:29:38.797Z,18.64
2023-05-22T07:30:39.102Z,18.67
2023-05-22T07:31:38.784Z,18.68
2023-05-22T07:32:38.799Z,18.68
2023-05-22T07:33:38.728Z,18.70
2023-05-22T07:34:38.756Z,18.68
2023-05-22T07:35:38.731Z,18.73
2023-05-22T07:36:38.772Z,18.71
2023-05-22T07:37:38.702Z,18.74
2023-05-22T07:38:38.666Z,18.76
2023-05-22T07:39:38.669Z,18.79
2023-05-22T07:40:38.887Z,18.81
2023-05-22T07:41:38.628Z,18.83
2023-05-22T07:42:38.627Z,18.83
2023-05-22T07:43:38.598Z,18.89
2023-05-22T07:44:38.710Z,18.88
2023-05-22T07:45:38.729Z,18.89
2023-05-22T07:46:38.669Z,18.91
2023-05-22T07:47:38.584Z,18.94
2023-05-22T07:48:38.541Z,18.96
2023-05-22T07:49:38.544Z,18.97
2023-05-22T07:50:38.513Z,18.98
2023-05-22T07:51:38.488Z,19.00
2023-05-22T07:52:38.500Z,19.01
2023-05-22T07:53:38.472Z,19.05
2023-05-22T07:54:38.519Z,19.07
2023-05-22T07:55:38.509Z,19.08
2023-05-22T07:56:38.431Z,19.08
2023-05-22T07:57:38.425Z,19.15
2023-05-22T07:58:38.422Z,19.16
2023-05-22T07:59:38.406Z,19.19
2023-05-22T08:00:38.376Z,19.22
2023-05-22T08:01:38.354Z,19.24
2023-05-22T08:02:38.433Z,19.27
2023-05-22T08:03:38.488Z,19.32
2023-05-22T08:04:38.486Z,19.35
2023-05-22T08:05:38.338Z,19.38
2023-05-22T08:06:38.491Z,19.41
2023-05-22T08:07:38.288Z,19.44
2023-05-22T08:08:38.277Z,19.47
2023-05-22T08:09:38.253Z,19.48
2023-05-22T08:11:39.733Z,19.59
2023-05-22T08:12:38.220Z,19.59
2023-05-22T08:13:38.217Z,19.63
2023-05-22T08:14:38.181Z,19.71
2023-05-22T08:15:38.166Z,19.74
2023-05-22T08:16:38.175Z,19.77
2023-05-22T08:17:38.238Z,19.78
2023-05-22T08:18:38.146Z,19.81
2023-05-22T08:19:38.200Z,19.81
2023-05-22T08:20:38.370Z,19.81
2023-05-22T08:21:38.085Z,19.82
2023-05-22T08:22:38.103Z,19.89
2023-05-22T08:23:38.070Z,19.93
2023-05-22T08:24:38.062Z,19.99
2023-05-22T08:25:38.044Z,20.02
2023-05-22T08:26:38.029Z,20.10
2023-05-22T08:27:38.067Z,20.12
2023-05-22T08:28:38.001Z,20.18
2023-05-22T08:29:38.003Z,20.21
2023-05-22T08:30:38.167Z,20.26
2023-05-22T08:31:37.970Z,20.29
2023-05-22T08:32:38.057Z,20.33
2023-05-22T08:33:37.928Z,20.39
2023-05-22T08:34:37.917Z,20.42
2023-05-22T08:35:37.895Z,20.42
2023-05-22T08:36:37.883Z,20.44
2023-05-22T08:37:37.886Z,20.49
2023-05-22T08:38:37.863Z,20.52
2023-05-22T08:39:37.844Z,20.55
2023-05-22T08:40:38.099Z,20.59
2023-05-22T08:41:37.832Z,20.63
2023-05-22T08:42:37.818Z,20.66
2023-05-22T08:43:37.825Z,20.67
2023-05-22T08:44:37.817Z,20.70
2023-05-22T08:45:37.764Z,20.71
2023-05-22T08:46:37.848Z,20.73
2023-05-22T08:47:37.789Z,20.75
2023-05-22T08:48:37.742Z,20.80
2023-05-22T08:49:37.749Z,20.78
2023-05-22T08:50:37.923Z,20.80
2023-05-22T08:51:37.712Z,20.82
2023-05-22T08:52:37.671Z,20.82
2023-05-22T08:53:37.656Z,20.85
2023-05-22T08:54:37.681Z,20.86
2023-05-22T08:55:37.646Z,20.86
2023-05-22T08:56:45.582Z,20.89
2023-05-22T08:57:38.601Z,20.92
2023-05-22T08:58:37.698Z,20.92
2023-05-22T08:59:37.566Z,20.95
2023-05-22T09:00:37.789Z,20.93
2023-05-22T09:01:37.761Z,20.96
2023-05-22T09:02:37.609Z,20.98
2023-05-22T09:03:37.550Z,21.00
2023-05-22T09:04:37.528Z,21.01
2023-05-22T09:05:37.521Z,21.01
2023-05-22T09:06:37.494Z,21.03
2023-05-22T09:07:37.460Z,21.04
2023-05-22T09:08:37.460Z,21.04
2023-05-22T09:09:37.456Z,21.03
2023-05-22T09:10:37.713Z,21.01
2023-05-22T09:11:37.413Z,21.01
2023-05-22T09:12:37.407Z,21.00
2023-05-22T09:13:37.419Z,21.00
2023-05-22T09:14:37.379Z,21.00
2023-05-22T09:15:37.419Z,21.01
2023-05-22T09:16:37.406Z,21.03
2023-05-22T09:17:37.368Z,21.03
2023-05-22T09:18:37.332Z,21.03
2023-05-22T09:19:37.503Z,21.01
2023-05-22T09:20:37.493Z,20.98
2023-05-22T09:21:37.275Z,20.96
2023-05-22T09:22:37.271Z,20.93
2023-05-22T09:23:37.265Z,20.93
2023-05-22T09:24:37.267Z,20.90
2023-05-22T09:25:37.225Z,20.88
2023-05-22T09:26:37.230Z,20.85
2023-05-22T09:27:37.216Z,20.83
2023-05-22T09:28:37.201Z,20.78
2023-05-22T09:29:37.203Z,20.77
2023-05-22T09:30:37.267Z,20.75
2023-05-22T09:31:37.192Z,20.71
2023-05-22T09:32:37.173Z,20.68
2023-05-22T09:33:37.160Z,20.64
2023-05-22T09:34:37.119Z,20.59
2023-05-22T09:35:37.103Z,20.56
2023-05-22T09:36:37.091Z,20.52
2023-05-22T09:37:37.070Z,20.50
2023-05-22T09:38:37.081Z,20.48
2023-05-22T09:39:37.053Z,20.44
2023-05-22T09:40:37.139Z,20.39
2023-05-22T09:41:37.026Z,20.40
2023-05-22T09:42:37.019Z,20.37
2023-05-22T09:43:37.020Z,20.34
2023-05-22T09:44:36.981Z,20.33
2023-05-22T09:45:36.966Z,20.32
2023-05-22T09:46:37.033Z,20.30
2023-05-22T09:47:36.990Z,20.29
2023-05-22T09:48:36.940Z,20.27
2023-05-22T09:49:36.902Z,20.27
2023-05-22T09:50:37.044Z,20.22
2023-05-22T09:51:36.906Z,20.21
2023-05-22T09:52:36.895Z,20.19
2023-05-22T09:53:36.910Z,20.18
2023-05-22T09:54:36.854Z,20.18
2023-05-22T09:55:36.889Z,20.18
2023-05-22T09:56:39.945Z,20.17
2023-05-22T09:57:36.818Z,20.17
2023-05-22T09:58:37.091Z,20.17
2023-05-22T09:59:36.811Z,20.17
2023-05-22T10:00:36.759Z,20.18
2023-05-22T10:01:36.819Z,20.19
2023-05-22T10:02:37.320Z,20.21
2023-05-22T10:03:36.719Z,20.24
2023-05-22T10:04:36.813Z,20.22
2023-05-22T10:05:36.697Z,20.27
2023-05-22T10:06:36.703Z,20.29
2023-05-22T10:07:36.687Z,20.32
2023-05-22T10:08:36.690Z,20.36
2023-05-22T10:09:36.640Z,20.39
2023-05-22T10:10:36.647Z,20.42
2023-05-22T10:11:36.615Z,20.48
2023-05-22T10:12:36.605Z,20.55
2023-05-22T10:13:36.586Z,20.58
2023-05-22T10:14:36.599Z,20.67
2023-05-22T10:15:36.569Z,20.73
2023-05-22T10:16:36.597Z,20.78
2023-05-22T10:17:36.550Z,20.86
2023-05-22T10:18:36.538Z,20.95
2023-05-22T10:19:37.744Z,21.01
2023-05-22T10:20:36.537Z,21.07
2023-05-22T10:21:36.495Z,21.17
2023-05-22T10:22:36.476Z,21.26
2023-05-22T10:23:36.451Z,21.35
2023-05-22T10:24:36.443Z,21.44
2023-05-22T10:25:36.440Z,21.53
2023-05-22T10:26:36.417Z,21.62
2023-05-22T10:27:36.404Z,21.69
2023-05-22T10:28:36.408Z,21.74
2023-05-22T10:29:36.492Z,21.80
2023-05-22T10:30:36.381Z,21.89
2023-05-22T10:31:37.157Z,21.97
2023-05-22T10:32:36.380Z,22.06
2023-05-22T10:33:36.375Z,22.12
2023-05-22T10:34:36.301Z,22.15
2023-05-22T10:35:36.312Z,22.16
2023-05-22T10:36:36.296Z,22.22
2023-05-22T10:37:36.272Z,22.28
2023-05-22T10:38:36.288Z,22.37
2023-05-22T10:39:36.245Z,22.44
2023-05-22T10:40:36.457Z,22.51
2023-05-22T10:41:36.241Z,22.56
2023-05-22T10:42:36.203Z,22.61
2023-05-22T10:43:36.213Z,22.67
2023-05-22T10:44:36.190Z,22.73
2023-05-22T10:45:36.187Z,22.77
2023-05-22T10:46:36.192Z,22.80
2023-05-22T10:47:36.187Z,22.84
2023-05-22T10:48:36.127Z,22.84
2023-05-22T10:49:36.136Z,22.91
2023-05-22T10:50:36.128Z,22.96
2023-05-22T10:51:36.090Z,23.01
2023-05-22T10:52:36.064Z,23.06
2023-05-22T10:53:36.072Z,23.01
2023-05-22T10:54:36.067Z,23.04
2023-05-22T10:55:36.039Z,23.08
2023-05-22T10:56:36.055Z,23.14
2023-05-22T10:57:36.042Z,23.18
2023-05-22T10:58:35.997Z,23.21
2023-05-22T10:59:36.004Z,23.25
2023-05-22T11:00:35.967Z,23.29
2023-05-22T11:01:36.065Z,23.32
2023-05-22T11:02:35.998Z,23.32
2023-05-22T11:03:35.940Z,23.29
2023-05-22T11:04:35.988Z,23.26
2023-05-22T11:05:35.918Z,23.23
2023-05-22T11:06:35.935Z,23.20
2023-05-22T11:07:35.878Z,23.13
2023-05-22T11:08:35.858Z,23.11
2023-05-22T11:09:35.879Z,23.11
2023-05-22T11:10:35.830Z,23.13
2023-05-22T11:11:35.824Z,23.17
2023-05-22T11:12:35.808Z,23.21
2023-05-22T11:13:35.816Z,23.25
2023-05-22T11:14:35.797Z,23.29
2023-05-22T11:15:35.768Z,23.32
2023-05-22T11:16:35.802Z,23.39
2023-05-22T11:17:35.790Z,23.48
2023-05-22T11:18:35.758Z,23.59
2023-05-22T11:19:35.749Z,23.66
2023-05-22T11:20:35.712Z,23.74
2023-05-22T11:21:35.694Z,23.77
2023-05-22T11:22:35.689Z,23.81
2023-05-22T11:23:35.692Z,23.81
2023-05-22T11:24:35.853Z,23.76
2023-05-22T11:25:35.643Z,23.77
2023-05-22T11:26:35.626Z,23.81
2023-05-22T11:27:35.685Z,23.86
2023-05-22T11:28:35.620Z,23.91
2023-05-22T11:29:35.605Z,23.91
2023-05-22T11:30:35.586Z,23.95
2023-05-22T11:31:35.605Z,23.92
2023-05-22T11:32:35.587Z,23.94
2023-05-22T11:33:35.531Z,23.95
2023-05-22T11:34:35.775Z,23.91
2023-05-22T11:35:35.515Z,23.91
2023-05-22T11:36:35.509Z,23.89
2023-05-22T11:37:35.530Z,23.91
2023-05-22T11:38:35.467Z,23.86
2023-05-22T11:39:35.468Z,23.92
2023-05-22T11:40:35.452Z,23.95
2023-05-22T11:41:35.461Z,23.99
2023-05-22T11:42:35.432Z,24.01
2023-05-22T11:43:35.420Z,24.03
2023-05-22T11:44:35.394Z,24.06
2023-05-22T11:45:35.377Z,24.07
2023-05-22T11:46:35.390Z,24.10
2023-05-22T11:47:35.387Z,24.16
2023-05-22T11:48:35.336Z,24.22
2023-05-22T11:49:35.318Z,24.28
2023-05-22T11:51:36.335Z,24.40
2023-05-22T11:52:35.287Z,24.50
2023-05-22T11:53:35.278Z,24.56
2023-05-22T11:54:37.758Z,24.59
2023-05-22T11:55:35.255Z,24.66
2023-05-22T11:56:35.240Z,24.71
2023-05-22T11:57:35.216Z,24.74
2023-05-22T11:58:35.216Z,24.74
2023-05-22T11:59:35.185Z,24.74
2023-05-22T12:00:35.252Z,24.78
2023-05-22T12:01:35.183Z,24.81
2023-05-22T12:02:35.296Z,24.88
2023-05-22T12:03:35.361Z,24.92
2023-05-22T12:04:35.133Z,24.94
2023-05-22T12:05:35.137Z,24.97
2023-05-22T12:06:35.151Z,25.01
2023-05-22T12:07:35.098Z,25.04
2023-05-22T12:08:35.105Z,25.04
2023-05-22T12:09:35.065Z,25.07
2023-05-22T12:10:35.070Z,25.11
2023-05-22T12:11:35.051Z,25.16
2023-05-22T12:12:35.015Z,25.18
2023-05-22T12:13:35.010Z,25.18
2023-05-22T12:14:35.019Z,25.19
2023-05-22T12:15:34.990Z,25.18
2023-05-22T12:16:35.083Z,25.16
2023-05-22T12:17:34.981Z,25.18
2023-05-22T12:18:34.936Z,25.19
2023-05-22T12:19:35.001Z,25.26
2023-05-22T12:20:34.904Z,25.30
2023-05-22T12:21:34.911Z,25.34
2023-05-22T12:22:34.879Z,25.36
2023-05-22T12:23:34.861Z,25.39
2023-05-22T12:24:34.879Z,25.39
2023-05-22T12:25:34.900Z,25.37
2023-05-22T12:26:34.834Z,25.41
2023-05-22T12:27:36.618Z,25.46
2023-05-22T12:28:34.798Z,25.51
2023-05-22T12:29:34.833Z,25.54
2023-05-22T12:30:34.794Z,25.55
2023-05-22T12:31:34.833Z,25.55
2023-05-22T12:32:34.772Z,25.58
2023-05-22T12:33:34.770Z,25.62
2023-05-22T12:34:34.737Z,25.62
2023-05-22T12:35:34.708Z,25.63
2023-05-22T12:36:34.696Z,25.68
2023-05-22T12:37:34.685Z,25.68
2023-05-22T12:38:35.603Z,25.71
2023-05-22T12:39:34.688Z,25.76
2023-05-22T12:40:34.643Z,25.80
2023-05-22T12:41:34.639Z,25.77
2023-05-22T12:42:34.636Z,25.80
2023-05-22T12:43:34.630Z,25.81
2023-05-22T12:44:34.812Z,25.81
2023-05-22T12:45:34.587Z,25.83
2023-05-22T12:46:34.650Z,25.89
2023-05-22T12:47:35.304Z,25.93
2023-05-22T12:48:34.576Z,25.95
2023-05-22T12:49:34.534Z,25.93
2023-05-22T12:50:34.510Z,25.91
2023-05-22T12:51:34.514Z,25.85
2023-05-22T12:52:34.487Z,25.81
2023-05-22T12:53:34.502Z,25.85
2023-05-22T12:54:34.474Z,25.88